Time;durP1;ratioP1;P1;durP2;ratioP2;P2;SDS_P1;SDS_P2;PMS_P1;PMS_P2;Temp;Humidity;BMP_temperature;BMP_pressure;BME280_temperature;BME280_humidity;BME280_pressure;Samples;Min_cycle;Max_cycle;Signal;HPM_P1;HPM_P2
2024/01/09 00:00:16;;;;;;;14.45;8.45;;;-4.80;99.90;;;;;;5037250;28;20059;-41
2024/01/09 00:02:42;;;;;;;15.77;8.15;;;-4.80;99.90;;;;;;5033939;28;20103;-45
2024/01/09 00:05:08;;;;;;;14.07;9.57;;;-4.90;99.90;;;;;;5051685;28;20025;-45
2024/01/09 00:07:33;;;;;;;16.00;8.55;;;-4.90;99.90;;;;;;5051936;28;20447;-46
2024/01/09 00:09:59;;;;;;;15.32;8.77;;;-4.90;99.90;;;;;;5053146;28;20025;-47
2024/01/09 00:12:24;;;;;;;17.27;7.38;;;-4.90;99.90;;;;;;5055462;28;20087;-44
2024/01/09 00:14:50;;;;;;;18.10;8.82;;;-4.90;99.90;;;;;;5055503;28;20337;-45
2024/01/09 00:17:16;;;;;;;20.10;9.23;;;-4.90;99.90;;;;;;5055261;28;20107;-45
2024/01/09 00:19:41;;;;;;;19.27;8.77;;;-4.90;99.90;;;;;;5055107;28;20066;-48
2024/01/09 00:22:07;;;;;;;15.55;7.57;;;-4.90;99.90;;;;;;5055044;28;20036;-46
2024/01/09 00:24:32;;;;;;;16.58;7.25;;;-4.90;99.90;;;;;;5054925;28;20369;-47
2024/01/09 00:26:57;;;;;;;14.43;8.23;;;-4.90;99.90;;;;;;5055101;28;20147;-44
2024/01/09 00:29:23;;;;;;;21.15;9.35;;;-4.90;99.90;;;;;;5037577;28;20440;-45
2024/01/09 00:31:48;;;;;;;13.75;7.70;;;-4.90;99.90;;;;;;5054672;28;20025;-44
2024/01/09 00:34:14;;;;;;;15.27;7.95;;;-4.90;99.90;;;;;;5054627;28;20029;-46
2024/01/09 00:36:43;;;;;;;18.13;8.05;;;-4.90;99.90;;;;;;5054933;28;20508;-51
2024/01/09 00:39:10;;;;;;;18.60;9.57;;;-4.90;99.90;;;;;;5054771;28;20082;-48
2024/01/09 00:41:35;;;;;;;21.13;8.93;;;-4.90;99.90;;;;;;5054456;28;20032;-43
2024/01/09 00:44:01;;;;;;;15.18;8.60;;;-4.90;99.90;;;;;;5055014;28;20431;-45
2024/01/09 00:46:28;;;;;;;15.95;8.13;;;-4.90;99.90;;;;;;5055121;28;20063;-47
2024/01/09 00:48:54;;;;;;;16.25;9.18;;;-5.00;99.90;;;;;;5055546;28;20380;-46
2024/01/09 00:51:26;;;;;;;15.63;7.88;;;-5.00;99.90;;;;;;5054534;28;20044;-45
2024/01/09 00:53:54;;;;;;;15.75;8.27;;;-5.00;99.90;;;;;;5020614;28;20059;-47
2024/01/09 00:56:20;;;;;;;12.65;7.68;;;-5.00;99.90;;;;;;5036691;28;20028;-46
2024/01/09 00:58:45;;;;;;;13.02;7.75;;;-4.90;99.90;;;;;;5054373;28;20341;-48
2024/01/09 01:01:10;;;;;;;14.27;7.85;;;-4.90;99.90;;;;;;5036313;28;20020;-51
2024/01/09 01:03:36;;;;;;;18.15;8.35;;;-5.00;99.90;;;;;;5053862;28;20108;-47
2024/01/09 01:06:02;;;;;;;13.88;8.30;;;-4.90;99.90;;;;;;5036370;28;20036;-49
2024/01/09 01:08:28;;;;;;;12.95;8.43;;;-4.90;99.90;;;;;;5054115;28;20033;-47
2024/01/09 01:10:53;;;;;;;15.25;8.65;;;-5.00;99.90;;;;;;5036063;28;20029;-48
2024/01/09 01:13:19;;;;;;;16.08;8.55;;;-4.90;99.90;;;;;;5053576;28;20492;-48
2024/01/09 01:15:45;;;;;;;11.48;7.78;;;-5.00;99.90;;;;;;5054029;28;20056;-50
2024/01/09 01:18:10;;;;;;;14.10;9.10;;;-5.00;99.90;;;;;;5054028;28;20029;-46
2024/01/09 01:20:36;;;;;;;16.88;8.35;;;-5.00;99.90;;;;;;5053063;28;20041;-46
2024/01/09 01:23:01;;;;;;;16.20;8.35;;;-5.00;99.90;;;;;;5053513;28;20458;-49
2024/01/09 01:25:27;;;;;;;18.13;9.35;;;-5.00;99.90;;;;;;5054047;28;20392;-48
2024/01/09 01:27:52;;;;;;;14.90;8.70;;;-4.90;99.90;;;;;;5054267;28;20079;-47
2024/01/09 01:30:18;;;;;;;16.80;9.23;;;-4.90;99.90;;;;;;5054268;28;20392;-51
2024/01/09 01:32:44;;;;;;;19.30;9.75;;;-4.90;99.90;;;;;;5054081;28;20062;-47
2024/01/09 01:35:09;;;;;;;14.75;8.30;;;-4.90;99.90;;;;;;5053820;28;20052;-44
2024/01/09 01:37:35;;;;;;;16.33;8.18;;;-5.00;99.90;;;;;;5053924;28;20024;-47
2024/01/09 01:40:01;;;;;;;17.48;8.73;;;-5.00;99.90;;;;;;5053608;28;20091;-45
2024/01/09 01:42:26;;;;;;;17.27;9.07;;;-5.00;99.90;;;;;;5053770;28;20052;-49
2024/01/09 01:44:52;;;;;;;17.42;8.73;;;-5.00;99.90;;;;;;5053966;28;20021;-45
2024/01/09 01:47:18;;;;;;;22.95;9.20;;;-5.00;99.90;;;;;;5053915;28;20032;-47
2024/01/09 01:49:44;;;;;;;15.20;9.52;;;-5.00;99.90;;;;;;5054013;28;20384;-46
2024/01/09 01:52:11;;;;;;;10.25;6.13;;;-5.00;99.90;;;;;;5035983;28;20025;-46
2024/01/09 01:54:39;;;;;;;15.57;7.25;;;-5.00;99.90;;;;;;5053226;28;20031;-50
2024/01/09 01:57:05;;;;;;;15.25;8.93;;;-5.00;99.90;;;;;;5053188;28;20020;-49
2024/01/09 01:59:34;;;;;;;16.05;7.82;;;-5.00;99.90;;;;;;5053243;28;20025;-51
2024/01/09 02:02:02;;;;;;;15.43;8.32;;;-5.00;99.90;;;;;;5052966;28;20113;-48
2024/01/09 02:04:28;;;;;;;15.35;7.70;;;-4.90;99.90;;;;;;5052863;28;20032;-49
2024/01/09 02:06:53;;;;;;;16.45;8.48;;;-4.90;99.90;;;;;;5053407;28;20036;-49
2024/01/09 02:09:19;;;;;;;13.57;8.32;;;-4.90;99.90;;;;;;5053167;28;20025;-49
2024/01/09 02:11:48;;;;;;;16.08;8.25;;;-4.90;99.90;;;;;;5052802;28;20040;-45
2024/01/09 02:14:14;;;;;;;13.32;7.88;;;-4.90;99.90;;;;;;5052738;28;20061;-48
2024/01/09 02:16:39;;;;;;;14.23;7.32;;;-4.90;99.90;;;;;;5053174;28;20025;-51
2024/01/09 02:19:05;;;;;;;14.45;8.65;;;-4.90;99.90;;;;;;5052888;28;20100;-50
2024/01/09 02:21:31;;;;;;;20.40;8.98;;;-5.00;99.90;;;;;;5034775;28;20116;-42
2024/01/09 02:23:56;;;;;;;17.73;8.75;;;-4.90;99.90;;;;;;5052920;28;20068;-46
2024/01/09 02:26:29;;;;;;;19.70;10.00;;;-4.90;99.90;;;;;;5052868;28;20024;-50
2024/01/09 02:28:58;;;;;;;11.23;7.18;;;-5.00;99.90;;;;;;5035166;28;20112;-46
2024/01/09 02:31:25;;;;;;;21.92;8.68;;;-5.00;99.90;;;;;;5034719;28;20032;-47
2024/01/09 02:33:50;;;;;;;15.05;8.50;;;-5.00;99.90;;;;;;5052535;28;20616;-48
2024/01/09 02:36:16;;;;;;;16.10;7.72;;;-5.00;99.90;;;;;;5053036;28;20109;-50
2024/01/09 02:38:43;;;;;;;14.73;8.35;;;-5.00;99.90;;;;;;5052876;28;20113;-45
2024/01/09 02:41:08;;;;;;;15.63;8.43;;;-5.00;99.90;;;;;;5052447;28;20017;-47
2024/01/09 02:43:34;;;;;;;15.75;8.98;;;-5.00;99.90;;;;;;5052342;28;20058;-46
2024/01/09 02:45:59;;;;;;;14.40;8.32;;;-5.00;99.90;;;;;;5052535;28;20131;-46
2024/01/09 02:48:25;;;;;;;17.65;8.75;;;-5.10;99.90;;;;;;5052835;28;20029;-48
2024/01/09 02:50:50;;;;;;;10.98;7.35;;;-5.10;99.90;;;;;;5052458;28;20032;-52
2024/01/09 02:53:16;;;;;;;22.17;9.25;;;-5.10;99.90;;;;;;5051998;28;20122;-43
2024/01/09 02:55:41;;;;;;;20.63;9.10;;;-5.10;99.90;;;;;;5051978;28;20095;-49
2024/01/09 02:58:07;;;;;;;15.85;8.45;;;-5.20;99.90;;;;;;5052097;28;20103;-45
2024/01/09 03:00:32;;;;;;;16.48;8.10;;;-5.20;99.90;;;;;;5051621;28;20029;-45
2024/01/09 03:02:58;;;;;;;14.13;8.93;;;-5.20;99.90;;;;;;5052006;28;20039;-47
2024/01/09 03:05:23;;;;;;;15.25;9.50;;;-5.20;99.90;;;;;;5051789;28;20029;-48
2024/01/09 03:07:49;;;;;;;15.82;9.18;;;-5.20;99.90;;;;;;5052068;28;20029;-49
2024/01/09 03:10:14;;;;;;;17.30;9.88;;;-5.30;99.90;;;;;;5051721;28;20105;-45
2024/01/09 03:12:40;;;;;;;16.08;8.70;;;-5.30;99.90;;;;;;5051718;28;20408;-48
2024/01/09 03:15:06;;;;;;;16.75;8.15;;;-5.30;99.90;;;;;;5051429;28;20021;-49
2024/01/09 03:17:32;;;;;;;16.20;9.23;;;-5.30;99.90;;;;;;5033799;28;20143;-48
2024/01/09 03:19:58;;;;;;;17.52;7.75;;;-5.30;99.90;;;;;;5051625;28;20096;-51
2024/01/09 03:22:23;;;;;;;15.07;8.93;;;-5.30;99.90;;;;;;5051664;28;20108;-49
2024/01/09 03:24:49;;;;;;;21.38;8.52;;;-5.20;99.90;;;;;;5051549;28;20079;-46
2024/01/09 03:27:14;;;;;;;16.30;8.90;;;-5.30;99.90;;;;;;5051670;28;20492;-46
2024/01/09 03:29:40;;;;;;;18.00;9.02;;;-5.30;99.90;;;;;;5051305;28;20056;-50
2024/01/09 03:32:06;;;;;;;18.27;8.90;;;-5.30;99.90;;;;;;5033416;28;20017;-47
2024/01/09 03:34:31;;;;;;;13.63;8.88;;;-5.30;99.90;;;;;;5051046;28;20024;-47
2024/01/09 03:36:57;;;;;;;14.20;8.38;;;-5.30;99.90;;;;;;5033652;28;20024;-49
2024/01/09 03:39:22;;;;;;;16.10;7.85;;;-5.30;99.90;;;;;;5033546;28;20025;-48
2024/01/09 03:41:48;;;;;;;15.85;8.85;;;-5.30;99.90;;;;;;5033430;28;20496;-47
2024/01/09 03:44:14;;;;;;;12.80;8.00;;;-5.30;99.90;;;;;;5050605;28;20391;-49
2024/01/09 03:46:39;;;;;;;19.05;8.60;;;-5.30;99.90;;;;;;5051413;28;20037;-48
2024/01/09 03:49:05;;;;;;;13.10;8.23;;;-5.30;99.90;;;;;;5051313;28;20400;-45
2024/01/09 03:51:30;;;;;;;15.93;8.73;;;-5.40;99.90;;;;;;5051193;28;20028;-49
2024/01/09 03:53:56;;;;;;;16.42;8.68;;;-5.40;99.90;;;;;;5051265;28;20029;-45
2024/01/09 03:56:23;;;;;;;17.55;7.82;;;-5.40;99.90;;;;;;5051939;28;20041;-46
2024/01/09 03:58:49;;;;;;;13.32;8.27;;;-5.40;99.90;;;;;;5052113;28;20021;-48
2024/01/09 04:01:14;;;;;;;18.60;8.68;;;-5.40;99.90;;;;;;5051995;28;20036;-47
2024/01/09 04:03:40;;;;;;;17.48;9.05;;;-5.40;99.90;;;;;;5051823;28;20503;-46
2024/01/09 04:06:06;;;;;;;13.63;7.65;;;-5.40;99.90;;;;;;5051516;28;20112;-47
2024/01/09 04:08:31;;;;;;;17.38;7.75;;;-5.40;99.90;;;;;;5051090;28;20080;-50
2024/01/09 04:10:57;;;;;;;15.90;8.95;;;-5.40;99.90;;;;;;5051020;28;20033;-50
2024/01/09 04:13:22;;;;;;;17.73;8.75;;;-5.40;99.90;;;;;;5050713;28;20485;-45
2024/01/09 04:15:48;;;;;;;14.43;8.13;;;-5.40;99.90;;;;;;5051053;28;20017;-44
2024/01/09 04:18:13;;;;;;;19.83;9.00;;;-5.40;99.90;;;;;;5051152;28;20029;-46
2024/01/09 04:20:40;;;;;;;15.35;8.60;;;-5.50;99.90;;;;;;5050793;28;20062;-47
2024/01/09 04:23:05;;;;;;;13.95;7.55;;;-5.50;99.90;;;;;;5050932;28;20079;-46
2024/01/09 04:25:31;;;;;;;16.63;9.07;;;-5.50;99.90;;;;;;5050820;28;20024;-50
2024/01/09 04:27:56;;;;;;;17.05;8.07;;;-5.50;99.90;;;;;;5050790;28;20033;-45
2024/01/09 04:30:22;;;;;;;15.43;8.63;;;-5.50;99.90;;;;;;5050688;28;20059;-47
2024/01/09 04:32:47;;;;;;;13.35;8.63;;;-5.40;99.90;;;;;;5050750;28;20341;-47
2024/01/09 04:35:13;;;;;;;14.55;7.72;;;-5.50;99.90;;;;;;5050746;28;20373;-45
2024/01/09 04:37:38;;;;;;;14.35;8.48;;;-5.50;99.90;;;;;;5050837;28;20460;-46
2024/01/09 04:40:05;;;;;;;13.02;7.82;;;-5.50;99.90;;;;;;5050681;28;20484;-48
2024/01/09 04:42:31;;;;;;;14.93;8.50;;;-5.50;99.90;;;;;;5050617;28;20110;-45
2024/01/09 04:44:57;;;;;;;19.98;8.85;;;-5.50;99.90;;;;;;5050503;28;20562;-50
2024/01/09 04:47:22;;;;;;;18.08;7.72;;;-5.50;99.90;;;;;;5050691;28;20021;-48
2024/01/09 04:49:48;;;;;;;12.30;6.93;;;-5.50;99.90;;;;;;5050651;28;20018;-50
2024/01/09 04:52:14;;;;;;;15.32;9.50;;;-5.50;99.90;;;;;;5050612;28;20017;-45
2024/01/09 04:54:40;;;;;;;10.40;7.13;;;-5.50;99.90;;;;;;5050467;28;20024;-46
2024/01/09 04:57:05;;;;;;;14.07;8.57;;;-5.50;99.90;;;;;;5053837;28;20094;-46
2024/01/09 04:59:31;;;;;;;12.88;7.50;;;-5.50;99.90;;;;;;5054177;28;20032;-48
2024/01/09 05:01:56;;;;;;;21.40;8.38;;;-5.40;99.90;;;;;;5054359;28;20031;-45
2024/01/09 05:04:24;;;;;;;14.75;7.78;;;-5.40;99.90;;;;;;5036676;28;20013;-48
2024/01/09 05:06:50;;;;;;;13.10;8.05;;;-5.40;99.90;;;;;;5054523;28;20106;-48
2024/01/09 05:09:16;;;;;;;13.63;7.15;;;-5.50;99.90;;;;;;5054662;28;20087;-47
2024/01/09 05:11:41;;;;;;;15.43;8.82;;;-5.40;99.90;;;;;;5054332;28;20052;-49
2024/01/09 05:14:07;;;;;;;14.93;7.88;;;-5.40;99.90;;;;;;5054034;28;20021;-49
2024/01/09 05:16:32;;;;;;;14.65;7.78;;;-5.40;99.90;;;;;;5054597;28;20021;-46
2024/01/09 05:18:58;;;;;;;16.98;7.93;;;-5.40;99.90;;;;;;5054367;28;20021;-47
2024/01/09 05:21:23;;;;;;;17.45;8.10;;;-5.40;99.90;;;;;;5054159;28;20119;-45
2024/01/09 05:23:49;;;;;;;12.27;6.97;;;-5.50;99.90;;;;;;5054267;28;20021;-47
2024/01/09 05:26:15;;;;;;;19.10;8.43;;;-5.50;99.90;;;;;;5054400;28;20059;-46
2024/01/09 05:28:40;;;;;;;12.68;7.55;;;-5.60;99.90;;;;;;5054325;28;20055;-48
2024/01/09 05:31:06;;;;;;;16.17;7.68;;;-5.50;99.90;;;;;;5054193;28;20052;-48
2024/01/09 05:33:31;;;;;;;14.40;7.60;;;-5.50;99.90;;;;;;5053900;28;20025;-49
2024/01/09 05:35:58;;;;;;;19.15;8.93;;;-5.50;99.90;;;;;;5054197;28;20033;-46
2024/01/09 05:38:23;;;;;;;13.30;7.55;;;-5.50;99.90;;;;;;5054073;28;20163;-47
2024/01/09 05:40:52;;;;;;;16.80;8.38;;;-5.50;99.90;;;;;;5054194;28;20021;-46
2024/01/09 05:43:17;;;;;;;15.75;8.38;;;-5.50;99.90;;;;;;5053801;28;20028;-44
2024/01/09 05:45:43;;;;;;;18.23;7.60;;;-5.50;99.90;;;;;;5053788;28;20025;-44
2024/01/09 05:48:08;;;;;;;12.13;7.15;;;-5.50;99.90;;;;;;5053803;28;20388;-48
2024/01/09 05:50:34;;;;;;;12.73;7.45;;;-5.50;99.90;;;;;;5053674;28;20407;-45
2024/01/09 05:53:01;;;;;;;15.27;7.72;;;-5.60;99.90;;;;;;5053493;28;20021;-46
2024/01/09 05:55:27;;;;;;;12.85;6.97;;;-5.60;99.90;;;;;;5053471;28;20020;-47
2024/01/09 05:57:55;;;;;;;13.52;7.07;;;-5.60;99.90;;;;;;5053815;28;20025;-51
2024/01/09 06:00:20;;;;;;;14.30;7.57;;;-5.60;99.90;;;;;;5053625;28;20025;-48
2024/01/09 06:02:46;;;;;;;15.63;7.72;;;-5.60;99.90;;;;;;5053378;28;20032;-47
2024/01/09 06:05:12;;;;;;;14.45;8.18;;;-5.60;99.90;;;;;;5053806;28;20103;-45
2024/01/09 06:07:37;;;;;;;11.10;6.88;;;-5.60;99.90;;;;;;5053006;28;20484;-51
2024/01/09 06:10:03;;;;;;;13.18;6.85;;;-5.60;99.90;;;;;;5053071;28;20029;-45
2024/01/09 06:12:29;;;;;;;17.33;8.40;;;-5.60;99.90;;;;;;5053361;28;20469;-45
2024/01/09 06:14:55;;;;;;;11.68;7.00;;;-5.60;99.90;;;;;;5035591;28;20060;-46
2024/01/09 06:17:21;;;;;;;13.88;7.97;;;-5.60;99.90;;;;;;5053453;28;20396;-47
2024/01/09 06:20:00;;;;;;;15.75;7.80;;;-5.70;99.90;;;;;;5053427;28;20063;-48
2024/01/09 06:22:26;;;;;;;15.38;7.60;;;-5.70;99.90;;;;;;5053538;28;20025;-48
2024/01/09 06:24:52;;;;;;;12.32;7.50;;;-5.70;99.90;;;;;;5053358;28;20120;-48
2024/01/09 06:27:18;;;;;;;17.42;7.88;;;-5.60;99.90;;;;;;5053443;28;20469;-50
2024/01/09 06:29:44;;;;;;;12.93;7.10;;;-5.60;99.90;;;;;;5035414;28;20060;-46
2024/01/09 06:32:09;;;;;;;14.07;7.40;;;-5.60;99.90;;;;;;5052811;28;20112;-46
2024/01/09 06:34:36;;;;;;;18.45;7.88;;;-5.70;99.90;;;;;;5035105;28;20514;-51
2024/01/09 06:37:02;;;;;;;11.65;7.70;;;-5.70;99.90;;;;;;5062461;28;20021;-48
2024/01/09 06:39:27;;;;;;;15.80;7.65;;;-5.70;99.90;;;;;;5072615;28;20534;-46
2024/01/09 06:41:53;;;;;;;16.45;7.60;;;-5.70;99.90;;;;;;5072340;28;20503;-48
2024/01/09 06:44:18;;;;;;;13.60;7.53;;;-5.60;99.90;;;;;;5072428;28;20107;-52
2024/01/09 06:46:44;;;;;;;16.10;6.78;;;-5.60;99.90;;;;;;5072637;28;20033;-45
2024/01/09 06:49:09;;;;;;;16.83;8.07;;;-5.70;99.90;;;;;;5076148;23;20041;-48
2024/01/09 06:51:35;;;;;;;8.73;6.45;;;-5.60;99.90;;;;;;5052563;28;20033;-49
2024/01/09 06:54:00;;;;;;;11.38;7.30;;;-5.60;99.90;;;;;;5028903;28;20124;-46
2024/01/09 06:56:26;;;;;;;13.77;7.03;;;-5.60;99.90;;;;;;5036424;28;20028;-47
2024/01/09 06:58:52;;;;;;;22.73;7.18;;;-5.70;99.90;;;;;;5021247;28;20113;-48
2024/01/09 07:01:17;;;;;;;12.95;6.80;;;-5.70;99.90;;;;;;5049247;28;20029;-48
2024/01/09 07:03:44;;;;;;;14.77;7.35;;;-5.70;99.90;;;;;;5047972;28;20029;-48
2024/01/09 07:06:09;;;;;;;12.85;7.30;;;-5.70;99.90;;;;;;5014256;28;20025;-47
2024/01/09 07:08:35;;;;;;;10.95;6.53;;;-5.70;99.90;;;;;;5014159;28;20025;-47
2024/01/09 07:11:00;;;;;;;11.07;6.43;;;-5.40;99.90;;;;;;5032447;28;20032;-45
2024/01/09 07:13:26;;;;;;;15.25;7.30;;;-5.50;99.90;;;;;;5031764;28;20037;-47
2024/01/09 07:15:51;;;;;;;10.45;5.72;;;-5.50;99.90;;;;;;5035465;28;20029;-46
2024/01/09 07:18:17;;;;;;;17.08;6.75;;;-5.50;99.90;;;;;;5050871;28;20060;-50
2024/01/09 07:20:43;;;;;;;18.35;7.18;;;-5.60;99.90;;;;;;5059874;28;20031;-45
2024/01/09 07:23:09;;;;;;;13.07;6.93;;;-5.70;99.90;;;;;;5042167;28;20053;-46
2024/01/09 07:25:34;;;;;;;12.95;6.40;;;-5.70;99.90;;;;;;5038736;28;20048;-45
2024/01/09 07:28:00;;;;;;;12.90;6.95;;;-5.60;99.90;;;;;;5051342;28;20033;-44
2024/01/09 07:30:26;;;;;;;11.93;6.35;;;-5.60;99.90;;;;;;5051866;28;20028;-45
2024/01/09 07:32:51;;;;;;;16.77;7.97;;;-5.70;99.90;;;;;;5051749;28;20499;-46
2024/01/09 07:35:17;;;;;;;12.07;7.07;;;-5.60;99.90;;;;;;5051384;28;20032;-45
2024/01/09 07:37:42;;;;;;;9.90;6.72;;;-5.60;99.90;;;;;;5052136;28;20547;-46
2024/01/09 07:40:09;;;;;;;8.77;5.88;;;-5.60;99.90;;;;;;5051251;28;20500;-46
2024/01/09 07:42:35;;;;;;;11.85;5.90;;;-5.60;99.90;;;;;;5051065;28;20029;-48
2024/01/09 07:45:00;;;;;;;12.00;6.63;;;-5.50;99.90;;;;;;5051198;28;20027;-44
2024/01/09 07:47:26;;;;;;;13.15;7.20;;;-5.50;99.90;;;;;;5051363;28;20503;-47
2024/01/09 07:49:52;;;;;;;14.52;6.70;;;-5.40;99.90;;;;;;5051216;28;20033;-46
2024/01/09 07:52:17;;;;;;;14.68;5.70;;;-5.40;99.90;;;;;;5042763;28;20056;-46
2024/01/09 07:54:43;;;;;;;17.55;6.28;;;-5.40;99.90;;;;;;5046541;28;20435;-47
2024/01/09 07:57:08;;;;;;;11.35;6.28;;;-5.40;99.90;;;;;;5038699;28;20100;-45
2024/01/09 07:59:34;;;;;;;10.27;7.07;;;-5.40;99.90;;;;;;5049620;28;20104;-46
2024/01/09 08:02:01;;;;;;;10.18;6.63;;;-5.40;99.90;;;;;;5045850;28;20036;-49
2024/01/09 08:04:26;;;;;;;11.65;6.07;;;-5.30;99.90;;;;;;5031116;28;20025;-47
2024/01/09 08:06:53;;;;;;;11.93;5.40;;;-5.40;99.90;;;;;;5038605;28;20024;-48
2024/01/09 08:09:19;;;;;;;10.60;6.47;;;-5.30;99.90;;;;;;5051056;28;20025;-49
2024/01/09 08:11:45;;;;;;;14.27;6.20;;;-5.30;99.90;;;;;;5051125;28;20554;-48
2024/01/09 08:14:12;;;;;;;10.70;6.07;;;-5.30;99.90;;;;;;5032775;28;20057;-49
2024/01/09 08:16:37;;;;;;;11.13;6.70;;;-5.10;99.90;;;;;;5048079;28;20009;-46
2024/01/09 08:19:04;;;;;;;15.02;6.82;;;-5.10;99.90;;;;;;5040690;28;20439;-47
2024/01/09 08:21:30;;;;;;;7.63;5.40;;;-5.00;99.90;;;;;;5050939;28;20484;-50
2024/01/09 08:23:56;;;;;;;17.77;6.47;;;-5.00;99.90;;;;;;5033697;28;20481;-44
2024/01/09 08:26:22;;;;;;;12.35;6.38;;;-4.90;99.90;;;;;;5031161;28;20026;-47
2024/01/09 08:28:48;;;;;;;14.68;6.53;;;-5.00;99.90;;;;;;5031251;28;20056;-49
2024/01/09 08:31:13;;;;;;;12.82;7.00;;;-4.80;99.90;;;;;;5033642;28;20057;-44
2024/01/09 08:33:39;;;;;;;13.05;6.10;;;-4.80;99.90;;;;;;5017836;28;20034;-50
2024/01/09 08:36:05;;;;;;;10.23;5.68;;;-4.70;99.90;;;;;;5046586;28;20036;-47
2024/01/09 08:38:30;;;;;;;14.45;7.75;;;-4.70;99.90;;;;;;5035073;28;20653;-43
2024/01/09 08:40:56;;;;;;;12.68;6.45;;;-4.70;99.90;;;;;;5040534;28;20045;-45
2024/01/09 08:43:22;;;;;;;11.07;6.68;;;-4.70;99.90;;;;;;5054752;28;20036;-44
2024/01/09 08:45:49;;;;;;;15.05;7.22;;;-4.60;99.90;;;;;;5054797;28;20025;-46
2024/01/09 08:48:15;;;;;;;10.65;5.95;;;-4.50;99.90;;;;;;5054646;28;20377;-46
2024/01/09 08:50:40;;;;;;;9.63;6.40;;;-4.50;99.90;;;;;;5052115;28;20043;-46
2024/01/09 08:53:06;;;;;;;17.85;6.88;;;-4.50;99.90;;;;;;5038171;28;20598;-46
2024/01/09 08:55:32;;;;;;;9.25;5.82;;;-4.40;99.90;;;;;;5034767;28;20025;-54
2024/01/09 08:57:57;;;;;;;12.07;6.93;;;-4.50;99.90;;;;;;5046417;28;20025;-47
2024/01/09 09:00:23;;;;;;;11.63;6.35;;;-4.30;99.90;;;;;;5034179;28;20072;-45
2024/01/09 09:02:49;;;;;;;12.38;6.60;;;-3.90;99.90;;;;;;5044106;28;20017;-48
2024/01/09 09:05:14;;;;;;;14.10;7.20;;;-2.50;99.90;;;;;;5054054;28;20033;-49
2024/01/09 09:07:40;;;;;;;12.88;6.72;;;-1.90;99.90;;;;;;5054302;28;20112;-49
2024/01/09 09:10:06;;;;;;;12.30;7.00;;;;;;;;;;5053997;28;20063;-49
2024/01/09 09:12:32;;;;;;;10.85;5.95;;;-0.70;98.30;;;;;;5054051;28;20048;-51
2024/01/09 09:14:58;;;;;;;11.60;5.53;;;-0.50;98.50;;;;;;5053535;28;20021;-49
2024/01/09 09:17:23;;;;;;;12.40;6.20;;;-0.30;97.40;;;;;;5043757;28;20076;-48
2024/01/09 09:19:49;;;;;;;13.63;6.57;;;0.10;96.70;;;;;;5050941;28;20405;-50
2024/01/09 09:22:14;;;;;;;13.13;6.22;;;0.10;96.40;;;;;;5049992;28;20018;-48
2024/01/09 09:24:42;;;;;;;9.98;6.70;;;0.00;96.50;;;;;;5033619;28;20029;-50
2024/01/09 09:27:07;;;;;;;10.63;5.82;;;1.20;95.00;;;;;;5051958;28;20021;-46
2024/01/09 09:29:33;;;;;;;13.25;6.15;;;1.40;94.70;;;;;;5045743;28;20021;-48
2024/01/09 09:31:58;;;;;;;10.65;6.55;;;1.30;94.00;;;;;;5024055;28;20021;-45
2024/01/09 09:34:24;;;;;;;11.65;6.70;;;0.70;93.60;;;;;;5040972;28;20037;-45
2024/01/09 09:36:50;;;;;;;9.73;6.18;;;;;;;;;;5053649;28;20021;-45
2024/01/09 09:39:17;;;;;;;12.02;6.53;;;;;;;;;;5042805;28;20022;-45
2024/01/09 09:41:47;;;;;;;9.15;5.80;;;0.90;93.60;;;;;;5032799;28;20405;-48
2024/01/09 09:44:15;;;;;;;10.82;6.70;;;1.00;93.10;;;;;;5036671;28;20489;-44
2024/01/09 09:46:41;;;;;;;9.07;5.95;;;0.70;93.70;;;;;;5038928;28;20025;-49
2024/01/09 09:49:08;;;;;;;12.20;6.32;;;1.00;93.60;;;;;;5043788;28;20228;-44
2024/01/09 09:51:35;;;;;;;12.05;6.32;;;1.00;93.20;;;;;;5033335;28;20048;-51
2024/01/09 09:54:02;;;;;;;11.30;6.88;;;1.10;93.20;;;;;;5033009;28;20029;-50
2024/01/09 09:56:28;;;;;;;9.38;5.50;;;0.90;92.80;;;;;;5044789;28;20057;-52
2024/01/09 09:58:54;;;;;;;9.85;5.38;;;1.10;93.40;;;;;;5044829;28;20018;-44
2024/01/09 10:01:22;;;;;;;15.68;5.70;;;1.40;93.20;;;;;;5033503;28;20378;-45
2024/01/09 10:04:27;;;;;;;8.30;6.05;;;1.70;92.00;;;;;;5015108;28;20029;-46
2024/01/09 10:06:56;;;;;;;10.80;5.90;;;1.90;91.70;;;;;;5043979;28;20025;-44
2024/01/09 10:09:23;;;;;;;8.48;6.07;;;1.60;91.60;;;;;;5052855;28;20585;-44
2024/01/09 10:11:49;;;;;;;11.10;6.03;;;1.40;91.70;;;;;;5051116;28;20024;-49
2024/01/09 10:14:15;;;;;;;9.82;6.65;;;1.30;91.30;;;;;;5041630;28;20032;-43
2024/01/09 10:16:51;;;;;;;12.90;5.93;;;1.10;91.60;;;;;;5052937;28;20498;-46
2024/01/09 10:19:17;;;;;;;13.02;6.18;;;0.70;92.30;;;;;;5052642;28;20117;-47
2024/01/09 10:21:43;;;;;;;12.25;5.97;;;0.60;91.90;;;;;;5052983;28;20021;-47
2024/01/09 10:24:09;;;;;;;11.55;6.15;;;0.60;92.80;;;;;;5052863;28;20041;-44
2024/01/09 10:26:34;;;;;;;9.98;5.60;;;0.50;92.40;;;;;;5051979;28;20105;-47
2024/01/09 10:29:01;;;;;;;8.80;5.70;;;0.50;92.20;;;;;;5046269;28;20029;-42
2024/01/09 10:31:26;;;;;;;9.45;6.00;;;0.20;92.40;;;;;;5036216;28;20033;-44
2024/01/09 10:33:54;;;;;;;9.02;5.30;;;0.00;93.00;;;;;;5032326;28;20434;-47
2024/01/09 10:36:20;;;;;;;10.02;5.50;;;-0.30;93.30;;;;;;5032686;28;20560;-42
2024/01/09 10:38:46;;;;;;;9.30;5.90;;;0.20;93.30;;;;;;5015362;28;20527;-45
2024/01/09 10:41:16;;;;;;;14.43;5.68;;;0.60;92.80;;;;;;5032533;28;20025;-44
2024/01/09 10:43:43;;;;;;;11.10;6.15;;;1.00;91.80;;;;;;5038189;28;20040;-43
2024/01/09 10:46:08;;;;;;;9.13;5.35;;;1.00;91.50;;;;;;5048610;28;20103;-45
2024/01/09 10:48:34;;;;;;;11.88;5.88;;;0.80;91.00;;;;;;5049409;28;20205;-45
2024/01/09 10:51:01;;;;;;;13.88;5.68;;;0.70;91.70;;;;;;5049826;28;20032;-42
2024/01/09 10:53:28;;;;;;;8.45;5.63;;;0.70;92.00;;;;;;5050557;28;20024;-45
2024/01/09 10:55:55;;;;;;;6.65;4.88;;;1.00;91.50;;;;;;5042324;28;20550;-42
2024/01/09 10:58:21;;;;;;;7.75;5.63;;;0.60;91.60;;;;;;5049802;28;20151;-42
2024/01/09 11:00:47;;;;;;;10.38;5.78;;;0.70;91.90;;;;;;5042579;28;20087;-43
2024/01/09 11:03:14;;;;;;;15.57;6.85;;;0.60;91.60;;;;;;5030617;28;20029;-44
2024/01/09 11:05:41;;;;;;;12.32;6.28;;;0.40;91.90;;;;;;5040390;28;20037;-45
2024/01/09 11:08:10;;;;;;;11.73;6.45;;;-0.10;92.00;;;;;;5036231;28;20091;-47
2024/01/09 11:10:36;;;;;;;8.50;6.03;;;-0.30;92.60;;;;;;5041608;28;20064;-44
2024/01/09 11:13:06;;;;;;;8.35;5.00;;;-0.50;93.10;;;;;;5033905;28;20139;-49
2024/01/09 11:15:36;;;;;;;12.02;5.28;;;-0.60;92.90;;;;;;5032023;28;20026;-48
2024/01/09 11:18:09;;;;;;;9.15;6.03;;;-0.60;93.30;;;;;;5032105;28;20052;-40
2024/01/09 11:20:35;;;;;;;8.00;5.10;;;-0.70;93.00;;;;;;5032001;28;20400;-44
2024/01/09 11:23:00;;;;;;;7.28;4.88;;;-0.60;93.60;;;;;;5027953;28;20033;-46
2024/01/09 11:25:31;;;;;;;13.23;5.97;;;-0.60;93.20;;;;;;5052088;28;20036;-43
2024/01/09 11:27:57;;;;;;;10.68;6.03;;;-0.50;93.00;;;;;;5052173;28;20488;-44
2024/01/09 11:30:27;;;;;;;7.70;4.90;;;-0.50;93.30;;;;;;5051534;28;20029;-46
2024/01/09 11:32:52;;;;;;;8.55;5.35;;;-0.40;93.00;;;;;;5049705;28;20035;-42
2024/01/09 11:35:20;;;;;;;13.02;6.07;;;-0.60;92.70;;;;;;5051945;28;20033;-43
2024/01/09 11:37:48;;;;;;;12.55;5.97;;;-0.70;92.80;;;;;;5053671;28;20044;-41
2024/01/09 11:40:15;;;;;;;10.38;6.05;;;-0.80;93.40;;;;;;5045820;28;20074;-43
2024/01/09 11:42:46;;;;;;;16.27;6.55;;;-0.80;92.90;;;;;;5041923;28;20160;-47
2024/01/09 11:45:12;;;;;;;11.00;5.10;;;-0.70;93.40;;;;;;5040904;28;20058;-45
2024/01/09 11:47:39;;;;;;;9.25;5.25;;;-0.60;92.70;;;;;;5057548;28;20112;-42
2024/01/09 11:50:09;;;;;;;12.73;5.97;;;-0.60;92.80;;;;;;5033633;28;20036;-48
2024/01/09 11:52:37;;;;;;;8.10;5.07;;;-0.50;92.80;;;;;;5045943;28;20036;-43
2024/01/09 11:55:11;;;;;;;13.43;6.68;;;-0.50;93.00;;;;;;5070992;28;20017;-43
2024/01/09 11:57:39;;;;;;;11.68;6.20;;;-0.40;92.70;;;;;;5060142;28;20036;-46
2024/01/09 12:00:06;;;;;;;10.20;5.95;;;-0.40;92.80;;;;;;5056147;28;20451;-39
2024/01/09 12:02:38;;;;;;;11.35;5.93;;;-0.40;92.30;;;;;;5056372;28;20185;-41
2024/01/09 12:05:08;;;;;;;7.88;5.63;;;-0.40;92.70;;;;;;5050659;28;20223;-44
2024/01/09 12:07:38;;;;;;;11.50;6.30;;;-0.30;92.70;;;;;;5065676;28;20103;-46
2024/01/09 12:10:05;;;;;;;9.38;5.35;;;-0.30;92.20;;;;;;5060619;28;20369;-42
2024/01/09 12:12:31;;;;;;;11.50;6.05;;;-0.20;92.70;;;;;;5064228;28;20491;-42
2024/01/09 12:14:58;;;;;;;9.77;6.18;;;-0.10;92.10;;;;;;5043726;28;20029;-44
2024/01/09 12:17:33;;;;;;;9.48;5.45;;;-0.20;92.70;;;;;;5044352;28;20403;-41
2024/01/09 12:20:03;;;;;;;10.98;5.05;;;-0.20;92.50;;;;;;5061888;28;20017;-41
2024/01/09 12:22:31;;;;;;;8.48;6.00;;;-0.20;92.30;;;;;;5054627;28;20037;-45
2024/01/09 12:24:57;;;;;;;12.13;5.43;;;-0.30;92.40;;;;;;5033667;28;20034;-44
2024/01/09 12:27:24;;;;;;;9.98;5.82;;;-0.30;91.80;;;;;;5043940;28;20029;-41
2024/01/09 12:29:53;;;;;;;10.20;5.63;;;-0.30;92.30;;;;;;5073009;28;20016;-43
2024/01/09 12:32:22;;;;;;;11.00;5.68;;;-0.20;92.40;;;;;;5049096;28;20120;-43
2024/01/09 12:34:48;;;;;;;12.70;5.60;;;-0.20;91.60;;;;;;5054123;28;20029;-43